createdAt,value
2019-04-11T00:01:53.595Z,-0.48
2019-04-11T00:04:24.561Z,-0.49
2019-04-11T00:06:56.237Z,-0.49
2019-04-11T00:09:27.258Z,-0.55
2019-04-11T00:11:59.768Z,-0.61
2019-04-11T00:14:31.723Z,-0.82
2019-04-11T00:17:03.668Z,-0.93
2019-04-11T00:19:35.804Z,-1.07
2019-04-11T00:22:09.021Z,-1.20
2019-04-11T00:24:40.546Z,-1.27
2019-04-11T00:27:12.872Z,-1.18
2019-04-11T00:29:44.860Z,-1.24
2019-04-11T00:32:17.061Z,-1.10
2019-04-11T00:34:48.201Z,-1.05
2019-04-11T00:37:19.108Z,-0.86
2019-04-11T00:39:50.174Z,-0.89
2019-04-11T00:42:20.944Z,-0.80
2019-04-11T00:44:51.796Z,-0.56
2019-04-11T00:47:22.720Z,-0.67
2019-04-11T00:49:54.711Z,-0.65
2019-04-11T00:52:25.745Z,-0.54
2019-04-11T00:54:57.389Z,-0.50
2019-04-11T00:57:28.587Z,-0.59
2019-04-11T00:59:59.634Z,-0.55
2019-04-11T01:02:31.595Z,-0.39
2019-04-11T01:05:03.493Z,-0.47
2019-04-11T01:07:35.329Z,-0.48
2019-04-11T01:10:07.658Z,-0.52
2019-04-11T01:12:39.059Z,-0.46
2019-04-11T01:15:13.370Z,-0.51
2019-04-11T01:17:45.864Z,-0.34
2019-04-11T01:20:17.659Z,-0.54
2019-04-11T01:22:48.730Z,-0.58
2019-04-11T01:25:20.162Z,-0.54
2019-04-11T01:27:52.277Z,-0.53
2019-04-11T01:30:25.050Z,-0.53
2019-04-11T01:32:56.950Z,-0.59
2019-04-11T01:35:28.796Z,-0.59
2019-04-11T01:37:59.887Z,-0.71
2019-04-11T01:40:31.954Z,-0.80
2019-04-11T01:43:03.850Z,-0.74
2019-04-11T01:45:35.773Z,-0.82
2019-04-11T01:48:13.737Z,-0.72
2019-04-11T01:50:45.273Z,-0.74
2019-04-11T01:53:17.105Z,-0.78
2019-04-11T01:55:48.367Z,-0.75
2019-04-11T01:58:19.448Z,-0.65
2019-04-11T02:00:54.898Z,-0.70
2019-04-11T02:03:27.854Z,-0.81
2019-04-11T02:05:59.173Z,-0.85
2019-04-11T02:08:31.437Z,-0.85
2019-04-11T02:11:03.354Z,-0.83
2019-04-11T02:13:34.495Z,-0.93
2019-04-11T02:16:05.339Z,-0.91
2019-04-11T02:18:37.295Z,-1.04
2019-04-11T02:21:11.542Z,-1.15
2019-04-11T02:24:01.625Z,-1.18
2019-04-11T02:26:35.545Z,-1.16
2019-04-11T02:29:06.606Z,-1.06
2019-04-11T02:31:38.927Z,-1.00
2019-04-11T02:34:11.383Z,-1.08
2019-04-11T02:36:43.399Z,-1.09
2019-04-11T02:39:19.514Z,-1.07
2019-04-11T02:41:48.225Z,-1.10
2019-04-11T02:44:50.953Z,-1.05
2019-04-11T02:47:00.685Z,-1.18
2019-04-11T02:49:25.722Z,-1.06
2019-04-11T02:51:58.577Z,-1.15
2019-04-11T02:54:30.567Z,-1.17
2019-04-11T02:57:02.543Z,-1.12
2019-04-11T02:59:34.518Z,-1.04
2019-04-11T03:02:07.037Z,-1.11
2019-04-11T03:04:39.303Z,-1.14
2019-04-11T03:07:12.282Z,-1.19
2019-04-11T03:09:44.456Z,-1.14
2019-04-11T03:12:16.439Z,-1.11
2019-04-11T03:15:05.572Z,-1.15
2019-04-11T03:17:26.169Z,-1.22
2019-04-11T03:20:04.304Z,-1.28
2019-04-11T03:22:26.945Z,-1.21
2019-04-11T03:25:00.129Z,-1.20
2019-04-11T03:27:32.401Z,-1.16
2019-04-11T03:30:09.950Z,-1.18
2019-04-11T03:38:04.197Z,-1.21
2019-04-11T03:40:36.174Z,-1.32
2019-04-11T03:43:05.815Z,-1.20
2019-04-11T03:45:43.848Z,-1.19
2019-04-11T03:48:12.385Z,-1.19
2019-04-11T03:50:33.932Z,-1.12
2019-04-11T03:53:04.750Z,-1.04
2019-04-11T03:55:36.904Z,-1.13
2019-04-11T03:58:08.982Z,-1.05
2019-04-11T04:00:43.655Z,-1.12
2019-04-11T04:03:14.217Z,-1.14
2019-04-11T04:05:45.535Z,-1.15
2019-04-11T04:08:17.813Z,-1.12
2019-04-11T04:11:08.549Z,-1.16
2019-04-11T04:13:45.969Z,-1.10
2019-04-11T04:16:27.369Z,-1.06
2019-04-11T04:19:11.737Z,-1.11
2019-04-11T04:21:49.276Z,-1.09
2019-04-11T04:24:28.792Z,-1.07
2019-04-11T04:27:01.719Z,-1.04
2019-04-11T04:29:35.184Z,-1.01
2019-04-11T04:32:08.711Z,-0.97
2019-04-11T04:34:42.194Z,-0.90
2019-04-11T04:37:14.129Z,-0.77
2019-04-11T04:39:45.773Z,-0.75
2019-04-11T04:42:25.022Z,-0.72
2019-04-11T04:44:51.755Z,-0.63
2019-04-11T04:47:32.752Z,-0.57
2019-04-11T04:49:57.088Z,-0.52
2019-04-11T04:52:29.680Z,-0.51
2019-04-11T04:55:02.104Z,-0.42
2019-04-11T04:57:35.377Z,-0.36
2019-04-11T05:00:07.364Z,-0.34
2019-04-11T05:02:39.807Z,-0.30
2019-04-11T05:05:11.342Z,-0.28
2019-04-11T05:07:46.374Z,-0.25
2019-04-11T05:10:16.689Z,-0.22
2019-04-11T05:12:47.368Z,-0.16
2019-04-11T05:15:18.728Z,-0.12
2019-04-11T05:17:51.103Z,-0.06
2019-04-11T05:20:22.418Z,-0.01
2019-04-11T05:22:53.714Z,0.06
2019-04-11T05:25:24.730Z,0.13
2019-04-11T05:27:55.952Z,0.18
2019-04-11T05:30:27.211Z,0.26
2019-04-11T05:32:58.181Z,0.35
2019-04-11T05:35:29.887Z,0.46
2019-04-11T05:38:01.985Z,0.53
2019-04-11T05:40:32.774Z,0.60
2019-04-11T05:43:03.937Z,0.69
2019-04-11T05:45:35.981Z,0.75
2019-04-11T05:48:09.403Z,0.82
2019-04-11T05:50:46.317Z,0.96
2019-04-11T05:53:15.801Z,1.04
2019-04-11T05:55:48.237Z,1.05
2019-04-11T05:58:19.660Z,1.04
2019-04-11T06:00:59.640Z,1.10
2019-04-11T06:03:30.694Z,1.13
2019-04-11T06:06:16.523Z,1.37
2019-04-11T06:08:48.396Z,1.55
2019-04-11T06:11:23.729Z,1.53
2019-04-11T06:14:11.234Z,1.67
2019-04-11T06:16:49.477Z,1.73
2019-04-11T06:19:37.549Z,1.80
2019-04-11T06:22:10.826Z,1.91
2019-04-11T06:24:52.766Z,1.80
2019-04-11T06:27:25.428Z,1.89
2019-04-11T06:29:59.177Z,2.11
2019-04-11T06:32:35.894Z,2.21
2019-04-11T06:35:13.586Z,2.21
2019-04-11T06:37:46.426Z,2.21
2019-04-11T06:40:26.435Z,2.30
2019-04-11T06:43:16.791Z,2.51
2019-04-11T06:46:05.008Z,2.77
2019-04-11T06:48:53.954Z,2.59
2019-04-11T06:51:42.785Z,2.80
2019-04-11T06:54:19.029Z,2.66
2019-04-11T06:56:52.298Z,2.73
2019-04-11T06:59:30.826Z,2.79
2019-04-11T07:02:11.541Z,2.91
2019-04-11T07:04:39.979Z,4.06
2019-04-11T07:07:12.995Z,5.89
2019-04-11T07:09:46.912Z,6.40
2019-04-11T07:12:22.155Z,7.51
2019-04-11T07:14:58.343Z,6.97
2019-04-11T07:17:48.367Z,6.89
2019-04-11T07:20:31.418Z,6.91
2019-04-11T07:23:20.296Z,6.46
2019-04-11T07:25:53.920Z,7.45
2019-04-11T07:28:41.803Z,6.57
2019-04-11T07:31:21.626Z,7.69
2019-04-11T07:34:12.511Z,8.11
2019-04-11T07:36:46.259Z,8.11
2019-04-11T07:39:22.659Z,8.37
2019-04-11T07:41:56.100Z,9.36
2019-04-11T07:44:35.933Z,8.58
2019-04-11T07:47:18.140Z,8.66
2019-04-11T07:49:43.633Z,9.13
2019-04-11T07:52:18.070Z,8.84
2019-04-11T07:54:48.765Z,8.50
2019-04-11T07:57:38.537Z,9.10
2019-04-11T08:00:12.784Z,9.33
2019-04-11T08:03:01.938Z,8.71
2019-04-11T08:05:46.606Z,8.57
2019-04-11T08:08:23.228Z,8.94
2019-04-11T08:10:56.242Z,9.07
2019-04-11T08:13:30.364Z,10.26
2019-04-11T08:16:12.579Z,10.35
2019-04-11T08:18:46.695Z,9.85
2019-04-11T08:21:26.197Z,9.75
2019-04-11T08:23:58.752Z,9.78
2019-04-11T08:26:36.614Z,10.74
2019-04-11T08:29:13.376Z,9.30
2019-04-11T08:31:58.743Z,9.06
2019-04-11T08:34:32.325Z,8.36
2019-04-11T08:37:11.532Z,8.12
2019-04-11T08:39:43.094Z,8.67
2019-04-11T08:42:23.386Z,8.58
2019-04-11T08:44:54.570Z,6.33
2019-04-11T08:47:40.193Z,9.28
2019-04-11T08:50:00.092Z,8.96
2019-04-11T08:52:32.860Z,9.23
2019-04-11T08:55:08.212Z,9.40
2019-04-11T08:57:41.538Z,9.59
2019-04-11T09:00:24.239Z,8.67
2019-04-11T09:03:05.095Z,6.35
2019-04-11T09:05:38.882Z,6.25
2019-04-11T09:08:18.363Z,7.52
2019-04-11T09:10:58.154Z,8.94
2019-04-11T09:13:47.321Z,10.63
2019-04-11T09:16:37.450Z,10.51
2019-04-11T09:19:13.269Z,8.09
2019-04-11T09:22:02.741Z,6.39
2019-04-11T09:24:38.814Z,6.29
2019-04-11T09:27:24.871Z,7.00
2019-04-11T09:30:04.461Z,6.03
2019-04-11T09:32:38.218Z,6.12
2019-04-11T09:35:12.301Z,6.29
2019-04-11T09:37:46.259Z,6.44
2019-04-11T09:40:37.136Z,5.90
2019-04-11T09:43:28.202Z,6.14
2019-04-11T09:46:16.523Z,6.29
2019-04-11T09:48:58.116Z,7.08
2019-04-11T09:51:40.375Z,8.36
2019-04-11T09:54:15.547Z,8.90
2019-04-11T09:56:54.019Z,8.98
2019-04-11T09:59:29.886Z,7.11
2019-04-11T10:02:18.833Z,7.54
2019-04-11T10:04:52.323Z,7.10
2019-04-11T10:07:28.135Z,6.57
2019-04-11T10:10:00.792Z,6.15
2019-04-11T10:12:49.207Z,6.04
2019-04-11T10:15:23.156Z,6.07
2019-04-11T10:18:23.006Z,5.61
2019-04-11T10:20:44.679Z,5.61
2019-04-11T10:23:36.631Z,5.69
2019-04-11T10:26:08.017Z,5.72
2019-04-11T10:29:00.234Z,5.76
2019-04-11T10:31:33.089Z,5.90
2019-04-11T10:34:14.585Z,5.82
2019-04-11T10:36:47.420Z,6.02
2019-04-11T10:39:19.983Z,6.04
2019-04-11T10:41:53.742Z,5.97
2019-04-11T10:44:43.380Z,6.13
2019-04-11T10:47:22.906Z,6.31
2019-04-11T10:50:15.470Z,6.08
2019-04-11T10:52:48.885Z,6.31
2019-04-11T10:55:25.319Z,6.32
2019-04-11T10:58:05.091Z,6.22
2019-04-11T11:00:43.312Z,6.21
2019-04-11T11:03:29.052Z,6.53
2019-04-11T11:06:03.158Z,6.46
2019-04-11T11:08:37.587Z,6.30
2019-04-11T11:11:30.374Z,6.63
2019-04-11T11:14:22.771Z,6.75
2019-04-11T11:17:04.541Z,6.71
2019-04-11T11:19:55.174Z,6.65
2019-04-11T11:22:18.994Z,6.85
2019-04-11T11:25:11.601Z,6.57
2019-04-11T11:27:41.675Z,6.57
2019-04-11T11:30:31.530Z,7.00
2019-04-11T11:33:05.611Z,7.11
2019-04-11T11:35:50.012Z,7.53
2019-04-11T11:38:26.057Z,7.40
2019-04-11T11:40:58.806Z,6.58
2019-04-11T11:43:32.972Z,6.71
2019-04-11T11:46:07.413Z,6.38
2019-04-11T11:48:41.797Z,6.01
2019-04-11T11:51:15.087Z,6.06
2019-04-11T11:53:51.279Z,6.05
2019-04-11T11:56:22.279Z,6.26
2019-04-11T11:59:02.755Z,6.52
2019-04-11T12:01:33.916Z,6.41
2019-04-11T12:04:24.542Z,6.60
2019-04-11T12:07:03.592Z,6.26
2019-04-11T12:09:50.954Z,6.28
2019-04-11T12:12:23.949Z,6.38
2019-04-11T12:15:16.943Z,6.47
2019-04-11T12:17:57.647Z,6.59
2019-04-11T12:20:34.786Z,6.64
2019-04-11T12:23:19.685Z,6.58
2019-04-11T12:25:51.705Z,6.41
2019-04-11T12:28:41.549Z,6.48
2019-04-11T12:31:13.498Z,6.23
2019-04-11T12:34:03.132Z,6.00
2019-04-11T12:36:36.921Z,5.93
2019-04-11T12:39:19.832Z,6.21
2019-04-11T12:41:52.330Z,6.42
2019-04-11T12:44:31.154Z,6.16
2019-04-11T12:47:15.704Z,6.16
2019-04-11T12:49:53.151Z,6.11
2019-04-11T12:52:25.708Z,6.04
2019-04-11T12:55:04.426Z,6.17
2019-04-11T12:57:43.106Z,6.37
2019-04-11T13:00:18.478Z,6.47
2019-04-11T13:02:54.166Z,6.06
2019-04-11T13:05:26.382Z,6.14
2019-04-11T13:08:16.046Z,5.92
2019-04-11T13:10:48.148Z,6.08
2019-04-11T13:13:20.947Z,6.36
2019-04-11T13:15:54.652Z,6.24
2019-04-11T13:18:45.032Z,6.07
2019-04-11T13:21:20.868Z,6.13
2019-04-11T13:23:57.511Z,6.32
2019-04-11T13:26:46.377Z,6.23
2019-04-11T13:29:30.625Z,6.06
2019-04-11T13:32:19.579Z,6.06
2019-04-11T13:34:53.504Z,6.12
2019-04-11T13:37:42.504Z,6.06
2019-04-11T13:40:31.548Z,5.99
2019-04-11T13:43:20.682Z,6.08
2019-04-11T13:46:04.439Z,6.04
2019-04-11T13:48:48.857Z,6.21
2019-04-11T13:51:31.549Z,6.19
2019-04-11T13:54:31.059Z,6.19
2019-04-11T13:57:06.633Z,6.27
2019-04-11T13:59:42.749Z,6.40
2019-04-11T14:02:18.491Z,6.27
2019-04-11T14:05:03.668Z,6.22
2019-04-11T14:07:35.046Z,6.14
2019-04-11T14:10:09.408Z,6.03
2019-04-11T14:12:41.040Z,6.20
2019-04-11T14:15:14.930Z,5.96
2019-04-11T14:17:50.323Z,6.12
2019-04-11T14:20:29.648Z,6.05
2019-04-11T14:23:03.528Z,6.18
2019-04-11T14:25:52.836Z,6.09
2019-04-11T14:28:29.639Z,6.01
2019-04-11T14:31:21.827Z,6.06
2019-04-11T14:33:55.635Z,5.98
2019-04-11T14:36:45.954Z,5.91
2019-04-11T14:39:20.204Z,5.96
2019-04-11T14:41:59.879Z,5.96
2019-04-11T14:44:35.150Z,5.86
2019-04-11T14:47:29.399Z,5.90
2019-04-11T14:50:02.035Z,6.05
2019-04-11T14:52:37.330Z,5.81
2019-04-11T14:55:08.839Z,5.72
2019-04-11T14:57:55.936Z,5.63
2019-04-11T15:00:31.791Z,5.72
2019-04-11T15:03:17.944Z,5.74
2019-04-11T15:05:51.817Z,5.67
2019-04-11T15:08:31.111Z,5.61
2019-04-11T15:11:12.875Z,5.64
2019-04-11T15:13:45.851Z,5.74
2019-04-11T15:16:19.654Z,5.64
2019-04-11T15:18:52.347Z,5.51
2019-04-11T15:21:43.479Z,5.51
2019-04-11T15:24:16.182Z,5.45
2019-04-11T15:26:53.394Z,5.36
2019-04-11T15:29:27.589Z,5.29
2019-04-11T15:32:03.552Z,5.30
2019-04-11T15:34:37.218Z,5.37
2019-04-11T15:37:19.994Z,5.33
2019-04-11T15:40:02.415Z,5.23
2019-04-11T15:42:51.423Z,5.23
2019-04-11T15:45:24.121Z,5.16
2019-04-11T15:48:13.099Z,5.19
2019-04-11T15:51:06.751Z,5.16
2019-04-11T15:53:39.611Z,5.19
2019-04-11T15:56:29.699Z,5.02
2019-04-11T15:59:12.921Z,4.97
2019-04-11T16:02:02.760Z,4.99
2019-04-11T16:04:36.799Z,5.03
2019-04-11T16:07:15.141Z,4.98
2019-04-11T16:09:57.146Z,4.96
2019-04-11T16:12:32.399Z,4.88
2019-04-11T16:15:13.917Z,4.84
2019-04-11T16:17:53.590Z,4.90
2019-04-11T16:20:25.219Z,4.91
2019-04-11T16:23:01.157Z,4.79
2019-04-11T16:25:32.529Z,4.76
2019-04-11T16:28:21.054Z,4.78
2019-04-11T16:30:53.874Z,4.69
2019-04-11T16:33:31.093Z,4.72
2019-04-11T16:36:08.544Z,4.67
2019-04-11T16:38:49.836Z,4.66
2019-04-11T16:41:38.768Z,4.64
2019-04-11T16:44:25.582Z,4.67
2019-04-11T16:47:04.860Z,4.64
2019-04-11T16:49:37.474Z,4.61
2019-04-11T16:52:08.861Z,4.53
2019-04-11T16:54:40.549Z,4.55
2019-04-11T16:57:13.569Z,4.55
2019-04-11T16:59:44.063Z,4.48
2019-04-11T17:02:16.131Z,4.44
2019-04-11T17:04:47.758Z,4.37
2019-04-11T17:07:29.036Z,4.37
2019-04-11T17:10:02.700Z,4.35
2019-04-11T17:12:34.101Z,4.34
2019-04-11T17:15:06.928Z,4.34
2019-04-11T17:17:38.296Z,4.25
2019-04-11T17:20:11.601Z,4.25
2019-04-11T17:22:42.799Z,4.21
2019-04-11T17:25:14.448Z,4.18
2019-04-11T17:27:47.086Z,4.19
2019-04-11T17:30:20.124Z,4.19
2019-04-11T17:32:55.381Z,4.19
2019-04-11T17:35:24.003Z,4.14
2019-04-11T17:37:55.295Z,4.09
2019-04-11T17:40:27.548Z,4.06
2019-04-11T17:43:00.048Z,4.09
2019-04-11T17:45:31.978Z,4.03
2019-04-11T17:48:03.351Z,4.09
2019-04-11T17:50:35.657Z,4.04
2019-04-11T17:53:07.395Z,4.00
2019-04-11T17:55:39.955Z,3.99
2019-04-11T17:58:11.185Z,3.99
2019-04-11T18:00:47.004Z,3.97
2019-04-11T18:03:18.840Z,3.97
2019-04-11T18:05:50.100Z,3.95
2019-04-11T18:08:21.374Z,3.99
2019-04-11T18:10:55.792Z,3.98
2019-04-11T18:13:25.289Z,3.93
2019-04-11T18:16:00.937Z,3.95
2019-04-11T18:18:30.344Z,3.92
2019-04-11T18:21:12.218Z,3.93
2019-04-11T18:23:52.205Z,3.87
2019-04-11T18:26:26.100Z,3.88
2019-04-11T18:28:57.227Z,3.87
2019-04-11T18:31:28.973Z,3.88
2019-04-11T18:34:02.450Z,3.86
2019-04-11T18:36:37.237Z,3.86
2019-04-11T18:39:08.568Z,3.83
2019-04-11T18:41:41.111Z,3.81
2019-04-11T18:44:18.057Z,3.81
2019-04-11T18:46:48.025Z,3.79
2019-04-11T18:49:21.769Z,3.74
2019-04-11T18:51:53.729Z,3.76
2019-04-11T18:54:27.316Z,3.74
2019-04-11T18:56:59.636Z,3.75
2019-04-11T18:59:33.709Z,3.71
2019-04-11T19:02:04.443Z,3.71
2019-04-11T19:04:36.720Z,3.69
2019-04-11T19:07:12.980Z,3.74
2019-04-11T19:09:43.968Z,3.71
2019-04-11T19:12:16.433Z,3.70
2019-04-11T19:14:47.457Z,3.65
2019-04-11T19:17:19.818Z,3.67
2019-04-11T19:19:51.808Z,3.64
2019-04-11T19:22:36.814Z,3.64
2019-04-11T19:24:55.357Z,3.62
2019-04-11T19:27:27.143Z,3.67
2019-04-11T19:29:59.700Z,3.64
2019-04-11T19:32:31.062Z,3.61
2019-04-11T19:35:02.042Z,3.60
2019-04-11T19:37:37.453Z,3.63
2019-04-11T19:40:10.069Z,3.62
2019-04-11T19:42:41.646Z,3.60
2019-04-11T19:45:13.274Z,3.59
2019-04-11T19:47:45.972Z,3.57
2019-04-11T19:50:16.991Z,3.54
2019-04-11T19:52:49.162Z,3.53
2019-04-11T19:55:22.119Z,3.55
2019-04-11T19:57:54.338Z,3.52
2019-04-11T20:00:25.210Z,3.53
2019-04-11T20:02:56.977Z,3.54
2019-04-11T20:05:27.832Z,3.51
2019-04-11T20:08:00.634Z,3.47
2019-04-11T20:10:33.033Z,3.46
2019-04-11T20:13:05.646Z,3.51
2019-04-11T20:15:37.511Z,3.46
2019-04-11T20:18:10.373Z,3.41
2019-04-11T20:20:41.760Z,3.41
2019-04-11T20:23:13.713Z,3.45
2019-04-11T20:25:49.086Z,3.42
2019-04-11T20:28:19.900Z,3.43
2019-04-11T20:30:51.922Z,3.46
2019-04-11T20:33:27.220Z,3.44
2019-04-11T20:35:57.286Z,3.43
2019-04-11T20:38:28.678Z,3.42
2019-04-11T20:40:59.920Z,3.44
2019-04-11T20:43:35.395Z,3.42
2019-04-11T20:46:08.244Z,3.42
2019-04-11T20:48:39.572Z,3.40
2019-04-11T20:51:12.664Z,3.40
2019-04-11T20:53:43.694Z,3.37
2019-04-11T20:56:23.944Z,3.37
2019-04-11T20:58:51.609Z,3.34
2019-04-11T21:01:23.812Z,3.30
2019-04-11T21:04:00.062Z,3.29
2019-04-11T21:06:32.082Z,3.27
2019-04-11T21:09:03.626Z,3.28
2019-04-11T21:11:37.150Z,3.28
2019-04-11T21:14:08.097Z,3.25
2019-04-11T21:16:38.962Z,3.25
2019-04-11T21:19:09.953Z,3.22
2019-04-11T21:21:40.723Z,3.19
2019-04-11T21:24:11.948Z,3.17
2019-04-11T21:26:42.590Z,3.19
2019-04-11T21:29:13.790Z,3.16
2019-04-11T21:31:44.825Z,3.13
2019-04-11T21:34:16.846Z,3.12
2019-04-11T21:36:47.467Z,3.14
2019-04-11T21:39:18.261Z,3.14
2019-04-11T21:41:49.284Z,3.12
2019-04-11T21:44:20.169Z,3.09
2019-04-11T21:46:51.072Z,3.10
2019-04-11T21:49:22.136Z,3.06
2019-04-11T21:51:53.360Z,3.08
2019-04-11T21:54:24.233Z,3.07
2019-04-11T21:56:55.229Z,3.07
2019-04-11T21:59:27.025Z,3.05
2019-04-11T22:01:58.179Z,3.05
2019-04-11T22:04:31.110Z,3.03
2019-04-11T22:07:02.557Z,3.03
2019-04-11T22:09:35.506Z,3.00
2019-04-11T22:12:08.233Z,3.03
2019-04-11T22:14:41.849Z,3.01
2019-04-11T22:17:15.902Z,3.04
2019-04-11T22:19:46.553Z,3.00
2019-04-11T22:22:18.984Z,3.03
2019-04-11T22:24:52.939Z,3.01
2019-04-11T22:27:24.480Z,3.03
2019-04-11T22:29:55.841Z,3.01
2019-04-11T22:32:27.020Z,3.03
2019-04-11T22:34:59.217Z,2.99
2019-04-11T22:37:30.810Z,2.96
2019-04-11T22:40:02.749Z,2.97
2019-04-11T22:42:34.910Z,2.95
2019-04-11T22:45:08.485Z,2.97
2019-04-11T22:47:38.991Z,2.94
2019-04-11T22:50:11.014Z,2.93
2019-04-11T22:52:42.197Z,2.94
2019-04-11T22:55:13.771Z,2.92
2019-04-11T22:57:44.552Z,2.91
2019-04-11T23:00:16.354Z,2.89
2019-04-11T23:02:51.998Z,2.88
2019-04-11T23:05:23.115Z,2.89
2019-04-11T23:07:55.583Z,2.90
2019-04-11T23:10:26.601Z,2.91
2019-04-11T23:12:57.345Z,2.87
2019-04-11T23:15:31.264Z,2.89
2019-04-11T23:18:02.733Z,2.84
2019-04-11T23:20:33.753Z,2.85
2019-04-11T23:23:05.075Z,2.88
2019-04-11T23:25:36.808Z,2.84
2019-04-11T23:28:07.661Z,2.88
2019-04-11T23:30:39.751Z,2.84
2019-04-11T23:33:10.619Z,2.86
2019-04-11T23:35:41.146Z,2.89
2019-04-11T23:38:12.667Z,2.84
2019-04-11T23:40:43.569Z,2.80
2019-04-11T23:43:15.381Z,2.81
2019-04-11T23:45:46.327Z,2.82
2019-04-11T23:48:17.375Z,2.82
2019-04-11T23:50:48.401Z,2.84
2019-04-11T23:53:19.715Z,2.83
2019-04-11T23:55:50.504Z,2.82
2019-04-11T23:58:21.795Z,2.85
